Time;durP1;ratioP1;P1;durP2;ratioP2;P2;SDS_P1;SDS_P2;PMS_P1;PMS_P2;Temp;Humidity;BMP_temperature;BMP_pressure;BME280_temperature;BME280_humidity;BME280_pressure;Samples;Min_cycle;Max_cycle;Signal;HPM_P1;HPM_P2
2022/11/29 00:01:49;;;;;;;1.92;0.60;;;24.50;79.20;;;;;;5053121;28;20193;-83
2022/11/29 00:04:20;;;;;;;2.13;0.60;;;24.50;77.70;;;;;;5053257;28;20671;-82
2022/11/29 00:06:51;;;;;;;1.30;0.50;;;24.50;79.20;;;;;;5053364;28;20281;-83
2022/11/29 00:09:22;;;;;;;1.85;0.75;;;24.70;77.70;;;;;;5066723;28;20202;-82
2022/11/29 00:14:39;;;;;;;2.17;0.70;;;24.70;76.60;;;;;;5074888;28;20723;-82
2022/11/29 00:17:12;;;;;;;3.33;0.40;;;24.90;76.50;;;;;;5073938;28;20217;-81
2022/11/29 00:19:43;;;;;;;2.17;0.75;;;25.00;75.20;;;;;;5066066;28;20208;-81
2022/11/29 00:22:14;;;;;;;4.00;0.88;;;25.10;74.50;;;;;;5053347;28;20728;-81
2022/11/29 00:24:45;;;;;;;2.72;0.70;;;25.10;74.70;;;;;;5052849;28;20227;-82
2022/11/29 00:27:16;;;;;;;0.90;0.52;;;25.20;72.60;;;;;;5053306;28;20741;-82
2022/11/29 00:29:48;;;;;;;1.95;0.50;;;25.10;69.30;;;;;;5072650;28;20196;-82
2022/11/29 00:32:22;;;;;;;2.17;0.60;;;25.00;69.60;;;;;;5053236;28;20201;-81
2022/11/29 00:34:53;;;;;;;1.02;0.50;;;25.00;69.20;;;;;;5044547;28;20193;-82
2022/11/29 00:37:24;;;;;;;2.35;0.50;;;25.20;67.90;;;;;;5059471;28;20299;-81
2022/11/29 00:39:55;;;;;;;1.35;0.60;;;25.20;64.80;;;;;;5072376;28;20196;-81
2022/11/29 00:42:25;;;;;;;0.75;0.40;;;25.20;62.90;;;;;;5072572;28;20200;-82
2022/11/29 00:44:56;;;;;;;1.30;0.40;;;25.30;63.90;;;;;;5071381;28;20200;-82
2022/11/29 00:47:29;;;;;;;0.77;0.30;;;25.40;61.50;;;;;;5068602;28;20375;-81
2022/11/29 00:50:00;;;;;;;1.10;0.40;;;25.40;60.00;;;;;;5052139;28;20583;-82
2022/11/29 00:52:31;;;;;;;0.80;0.30;;;25.50;59.60;;;;;;5052007;28;20200;-82
2022/11/29 00:55:02;;;;;;;0.55;0.30;;;25.50;57.10;;;;;;5051827;28;20232;-82
2022/11/29 00:57:32;;;;;;;2.65;0.35;;;25.60;57.50;;;;;;5052038;28;20211;-82
2022/11/29 01:00:03;;;;;;;2.90;0.30;;;25.70;58.80;;;;;;5055751;28;20192;-80
2022/11/29 01:02:37;;;;;;;1.17;0.40;;;25.60;58.10;;;;;;5071540;28;20265;-81
2022/11/29 01:05:08;;;;;;;1.17;0.40;;;25.50;57.40;;;;;;5071720;28;20204;-81
2022/11/29 01:07:39;;;;;;;1.05;0.40;;;25.50;56.40;;;;;;5071413;28;20191;-81
2022/11/29 01:10:10;;;;;;;1.33;0.55;;;25.60;56.80;;;;;;5071902;28;20200;-81
2022/11/29 01:12:42;;;;;;;1.30;0.30;;;25.60;57.30;;;;;;5072228;28;20196;-81
2022/11/29 01:15:13;;;;;;;1.02;0.45;;;25.50;55.00;;;;;;5071919;28;20753;-82
2022/11/29 01:17:46;;;;;;;2.08;0.50;;;25.60;55.20;;;;;;5071531;28;20191;-81
2022/11/29 01:20:17;;;;;;;0.88;0.25;;;25.60;55.30;;;;;;5082584;28;20196;-81
2022/11/29 01:22:48;;;;;;;0.73;0.30;;;25.70;54.80;;;;;;5077312;28;20263;-81
2022/11/29 01:25:19;;;;;;;0.45;0.22;;;25.60;54.90;;;;;;5070910;28;20215;-81
2022/11/29 01:27:50;;;;;;;0.47;0.20;;;25.40;54.10;;;;;;5069895;28;20674;-81
2022/11/29 01:30:21;;;;;;;0.50;0.30;;;25.50;54.90;;;;;;5071544;28;20206;-82
2022/11/29 01:32:54;;;;;;;0.55;0.30;;;25.50;54.70;;;;;;5071432;28;20720;-82
2022/11/29 01:35:24;;;;;;;0.85;0.38;;;25.50;54.20;;;;;;5070032;28;20231;-81
2022/11/29 01:37:58;;;;;;;1.17;0.40;;;25.60;56.30;;;;;;5060234;28;20567;-82
2022/11/29 01:40:29;;;;;;;1.13;0.50;;;25.70;54.90;;;;;;5071193;28;20582;-81
2022/11/29 01:43:00;;;;;;;2.65;0.30;;;25.80;55.70;;;;;;5071100;28;20200;-82
2022/11/29 01:45:36;;;;;;;1.30;0.50;;;25.80;56.10;;;;;;5071752;28;20306;-82
2022/11/29 01:48:11;;;;;;;1.02;0.30;;;25.90;55.00;;;;;;5071320;28;20550;-82
2022/11/29 01:50:43;;;;;;;1.10;0.20;;;25.90;54.30;;;;;;5069534;28;20237;-82
2022/11/29 01:53:16;;;;;;;1.52;0.40;;;25.90;55.40;;;;;;5071704;28;20724;-82
2022/11/29 01:55:52;;;;;;;1.95;0.20;;;26.00;55.70;;;;;;5064440;28;20271;-81
2022/11/29 01:58:24;;;;;;;0.55;0.20;;;26.00;54.10;;;;;;5050780;28;20566;-81
2022/11/29 02:00:54;;;;;;;2.05;0.40;;;26.00;55.00;;;;;;5050544;28;20287;-81
2022/11/29 02:03:27;;;;;;;0.40;0.20;;;25.90;53.80;;;;;;5050855;28;20192;-81
2022/11/29 02:05:59;;;;;;;1.25;0.30;;;25.80;53.20;;;;;;5054951;28;20697;-81
2022/11/29 02:08:35;;;;;;;1.50;0.28;;;25.80;53.20;;;;;;5071400;28;20203;-82
2022/11/29 02:11:21;;;;;;;1.90;0.20;;;25.80;53.70;;;;;;5071082;28;20676;-82
2022/11/29 02:14:03;;;;;;;0.15;0.15;;;25.80;53.00;;;;;;5055528;28;20291;-82
2022/11/29 02:16:43;;;;;;;0.40;0.22;;;25.80;52.80;;;;;;5053297;28;20223;-81
2022/11/29 02:19:36;;;;;;;0.75;0.25;;;25.80;52.50;;;;;;5072365;28;20597;-82
2022/11/29 02:22:12;;;;;;;1.15;0.22;;;25.90;53.80;;;;;;5076528;28;20190;-81
2022/11/29 02:24:59;;;;;;;1.75;0.20;;;26.10;53.10;;;;;;5089103;28;20250;-80
2022/11/29 02:27:56;;;;;;;3.63;0.43;;;26.10;53.30;;;;;;5072217;28;20219;-81
2022/11/29 02:30:45;;;;;;;0.80;0.40;;;26.30;53.60;;;;;;5075691;28;20673;-82
2022/11/29 02:33:47;;;;;;;0.75;0.30;;;26.30;53.30;;;;;;5071252;28;20202;-81
2022/11/29 02:36:52;;;;;;;1.10;0.32;;;26.30;53.90;;;;;;5070256;28;20204;-82
2022/11/29 02:40:07;;;;;;;0.30;0.22;;;26.30;53.50;;;;;;4989296;28;20198;-82
2022/11/29 02:43:09;;;;;;;0.50;0.30;;;26.30;56.10;;;;;;5050560;28;20205;-82
2022/11/29 02:45:54;;;;;;;2.45;0.40;;;26.40;56.10;;;;;;5047838;28;20199;-81
2022/11/29 02:48:38;;;;;;;1.08;0.35;;;26.40;56.00;;;;;;5050996;28;20295;-82
2022/11/29 02:51:12;;;;;;;0.52;0.30;;;26.70;57.30;;;;;;5050714;28;20279;-82
2022/11/29 02:53:52;;;;;;;1.52;0.30;;;26.60;55.30;;;;;;5050821;28;20210;-82
2022/11/29 02:56:31;;;;;;;0.20;0.20;;;26.70;56.50;;;;;;5050841;28;20284;-82
2022/11/29 02:59:09;;;;;;;2.15;0.40;;;26.50;54.20;;;;;;5064420;28;20206;-82
2022/11/29 03:01:48;;;;;;;3.10;0.30;;;26.60;56.70;;;;;;5074257;28;20196;-82
2022/11/29 03:04:30;;;;;;;3.30;0.40;;;26.60;56.30;;;;;;5073978;28;20207;-82
2022/11/29 03:07:08;;;;;;;1.83;0.43;;;26.70;57.00;;;;;;5064456;28;20227;-82
2022/11/29 03:09:44;;;;;;;2.55;0.70;;;26.60;57.30;;;;;;5054554;28;20208;-80
2022/11/29 03:12:27;;;;;;;0.88;0.32;;;26.70;58.50;;;;;;5054642;28;20207;-81
2022/11/29 03:15:09;;;;;;;2.58;0.70;;;26.70;59.80;;;;;;5060556;28;20199;-81
2022/11/29 03:17:50;;;;;;;2.10;0.40;;;26.90;59.60;;;;;;5072878;28;20685;-81
2022/11/29 03:20:37;;;;;;;1.38;0.52;;;27.00;61.60;;;;;;5070095;28;20637;-80
2022/11/29 03:23:20;;;;;;;1.95;0.43;;;27.20;61.30;;;;;;5069796;28;20200;-81
2022/11/29 03:25:59;;;;;;;4.68;0.63;;;27.30;61.10;;;;;;5090426;28;20222;-80
2022/11/29 03:28:34;;;;;;;2.10;0.57;;;27.30;64.10;;;;;;5074417;28;20204;-81
2022/11/29 03:31:12;;;;;;;2.65;0.70;;;27.10;64.60;;;;;;5073223;28;20215;-80
2022/11/29 03:33:53;;;;;;;1.42;0.40;;;27.20;63.90;;;;;;5074064;28;20203;-81
2022/11/29 03:36:34;;;;;;;1.23;0.60;;;27.30;67.40;;;;;;5054235;28;20288;-81
2022/11/29 03:39:12;;;;;;;1.48;0.40;;;27.30;64.50;;;;;;5071034;28;20286;-80
2022/11/29 03:41:48;;;;;;;1.70;0.70;;;27.40;64.10;;;;;;5073805;28;20223;-81
2022/11/29 03:44:21;;;;;;;1.55;0.57;;;27.50;66.80;;;;;;5073819;28;20688;-81
2022/11/29 03:47:00;;;;;;;1.90;0.70;;;27.50;67.90;;;;;;5067754;28;20224;-81
2022/11/29 03:49:37;;;;;;;1.02;0.55;;;27.30;67.40;;;;;;5069747;28;20192;-81
2022/11/29 03:52:18;;;;;;;1.65;0.40;;;27.10;67.90;;;;;;5072113;28;20196;-80
2022/11/29 03:54:59;;;;;;;2.10;0.50;;;27.00;66.90;;;;;;5064814;28;20223;-81
2022/11/29 03:57:38;;;;;;;1.15;0.50;;;27.00;69.60;;;;;;5052838;28;20262;-81
2022/11/29 04:00:11;;;;;;;3.30;0.45;;;27.00;69.70;;;;;;5072742;28;20207;-81
2022/11/29 04:03:18;;;;;;;2.20;0.40;;;27.00;68.00;;;;;;5073257;28;20222;-79
2022/11/29 04:06:20;;;;;;;2.72;0.70;;;26.90;73.70;;;;;;5070202;28;20199;-81
2022/11/29 04:09:27;;;;;;;1.65;0.55;;;26.80;76.70;;;;;;5064943;28;20564;-82
2022/11/29 04:12:33;;;;;;;3.67;0.70;;;26.90;77.40;;;;;;5060142;28;20286;-81
2022/11/29 04:15:27;;;;;;;2.70;0.70;;;27.00;79.30;;;;;;5056769;28;20207;-81
2022/11/29 04:18:23;;;;;;;3.10;0.68;;;27.10;81.10;;;;;;5067844;28;20206;-81
2022/11/29 04:21:25;;;;;;;5.63;0.80;;;27.20;80.40;;;;;;5065333;28;20728;-81
2022/11/29 04:24:24;;;;;;;3.10;0.70;;;27.20;79.40;;;;;;5078800;28;20219;-80
2022/11/29 04:27:30;;;;;;;1.50;0.50;;;27.00;79.20;;;;;;5067699;28;20211;-78
2022/11/29 04:30:19;;;;;;;1.40;0.50;;;27.40;74.00;;;;;;5054904;28;20208;-82
2022/11/29 04:33:33;;;;;;;1.95;0.70;;;27.50;72.30;;;;;;5054839;28;20654;-82
2022/11/29 04:36:34;;;;;;;3.45;0.70;;;27.60;75.40;;;;;;5037092;28;20192;-81
2022/11/29 04:39:33;;;;;;;2.05;0.60;;;27.40;79.40;;;;;;5072482;28;20291;-82
2022/11/29 04:42:42;;;;;;;2.63;0.77;;;27.70;78.50;;;;;;5067180;28;20220;-82
2022/11/29 04:45:57;;;;;;;2.45;0.68;;;27.80;78.70;;;;;;5059945;28;20227;-82
2022/11/29 04:48:44;;;;;;;4.93;0.70;;;27.80;79.30;;;;;;5064279;28;20223;-81
2022/11/29 04:51:26;;;;;;;5.53;0.88;;;27.40;80.90;;;;;;5072039;28;20200;-81
2022/11/29 04:54:01;;;;;;;4.43;1.10;;;27.50;81.50;;;;;;5051705;28;20200;-82
2022/11/29 04:56:41;;;;;;;7.15;1.20;;;27.20;85.00;;;;;;5051394;28;20235;-81
2022/11/29 04:59:18;;;;;;;7.32;1.33;;;27.50;87.10;;;;;;5051320;28;20200;-81
2022/11/29 05:02:04;;;;;;;5.63;1.40;;;27.70;84.50;;;;;;5051546;28;20203;-80
2022/11/29 05:04:45;;;;;;;5.68;1.35;;;27.70;85.30;;;;;;5064416;28;20207;-80
2022/11/29 05:07:26;;;;;;;6.95;1.77;;;27.40;86.20;;;;;;5070921;28;20306;-81
2022/11/29 05:10:07;;;;;;;7.88;1.73;;;27.30;86.40;;;;;;5066220;28;20196;-79
2022/11/29 05:12:45;;;;;;;4.78;1.13;;;26.70;89.20;;;;;;5064540;28;20277;-81
2022/11/29 05:15:48;;;;;;;7.25;1.40;;;26.50;90.70;;;;;;5072859;28;20322;-81
2022/11/29 05:18:29;;;;;;;7.35;1.30;;;26.20;90.10;;;;;;5072109;28;20229;-81
2022/11/29 05:21:08;;;;;;;6.72;1.30;;;25.60;91.20;;;;;;5054770;28;20646;-81
2022/11/29 05:23:50;;;;;;;11.75;1.60;;;25.70;93.40;;;;;;5051403;28;20203;-81
2022/11/29 05:26:27;;;;;;;6.23;1.50;;;25.60;93.10;;;;;;5055115;28;20197;-83
2022/11/29 05:29:04;;;;;;;6.00;1.50;;;25.20;94.50;;;;;;5079165;28;20223;-82
2022/11/29 05:31:58;;;;;;;6.47;1.48;;;24.80;95.10;;;;;;5073011;28;20231;-82
2022/11/29 05:34:46;;;;;;;3.60;1.20;;;25.20;96.30;;;;;;5070776;28;20233;-82
2022/11/29 05:37:28;;;;;;;5.97;1.50;;;25.10;95.90;;;;;;5068524;28;20647;-81
2022/11/29 05:40:21;;;;;;;6.55;1.58;;;25.30;96.70;;;;;;5061125;28;20188;-81
2022/11/29 05:43:08;;;;;;;8.20;1.60;;;25.50;97.30;;;;;;5063122;28;20258;-83
2022/11/29 05:45:45;;;;;;;4.72;1.20;;;25.50;96.20;;;;;;5050846;28;20287;-81
2022/11/29 05:48:23;;;;;;;7.90;1.50;;;25.50;96.20;;;;;;5052301;28;20224;-81
2022/11/29 05:51:09;;;;;;;4.85;1.30;;;25.60;95.10;;;;;;5046854;28;20203;-81
2022/11/29 05:53:48;;;;;;;6.07;1.13;;;25.60;95.30;;;;;;5063987;28;20770;-82
2022/11/29 05:56:26;;;;;;;8.50;1.70;;;25.90;94.40;;;;;;5051288;28;20228;-82
2022/11/29 05:59:02;;;;;;;7.40;1.50;;;25.60;94.50;;;;;;5068365;28;20195;-82
2022/11/29 06:01:42;;;;;;;6.72;1.33;;;25.60;94.50;;;;;;5067333;28;20242;-81
2022/11/29 06:04:17;;;;;;;5.22;1.50;;;25.60;94.20;;;;;;5067966;28;20596;-82
2022/11/29 06:06:59;;;;;;;7.93;1.67;;;25.90;94.20;;;;;;5070300;28;20680;-82
2022/11/29 06:09:34;;;;;;;7.05;1.65;;;26.20;94.30;;;;;;5070797;28;20285;-81
2022/11/29 06:12:08;;;;;;;5.78;1.83;;;26.60;93.00;;;;;;5056844;28;20192;-81
2022/11/29 06:15:01;;;;;;;10.93;1.65;;;26.50;91.10;;;;;;5050140;28;20196;-81
2022/11/29 06:17:54;;;;;;;7.18;1.52;;;25.80;92.40;;;;;;5048198;28;20201;-81
2022/11/29 06:20:44;;;;;;;6.28;1.50;;;25.30;93.00;;;;;;5070074;28;20271;-80
2022/11/29 06:23:35;;;;;;;4.75;1.27;;;24.80;93.10;;;;;;5070393;28;20684;-81
2022/11/29 06:26:25;;;;;;;9.57;1.80;;;24.50;93.70;;;;;;5068357;28;20202;-81
2022/11/29 06:29:18;;;;;;;7.20;1.45;;;24.70;95.00;;;;;;5078441;28;20228;-80
2022/11/29 06:31:53;;;;;;;8.15;1.52;;;25.60;93.10;;;;;;5070258;28;20192;-82
2022/11/29 06:34:32;;;;;;;6.85;1.65;;;25.90;91.40;;;;;;5075689;28;20194;-83
2022/11/29 06:37:07;;;;;;;10.05;1.70;;;26.40;90.70;;;;;;5071243;28;20199;-84
2022/11/29 06:39:41;;;;;;;8.30;1.50;;;26.40;88.70;;;;;;5069752;28;20195;-82
2022/11/29 06:42:12;;;;;;;5.88;1.40;;;26.70;86.10;;;;;;5063079;28;20239;-82
2022/11/29 06:44:43;;;;;;;7.70;1.40;;;25.90;88.00;;;;;;5060132;28;20236;-82
2022/11/29 06:47:20;;;;;;;5.90;1.48;;;25.20;90.40;;;;;;5050686;28;20220;-82
2022/11/29 06:49:55;;;;;;;5.28;1.38;;;24.70;91.40;;;;;;5060186;28;20199;-82
2022/11/29 06:52:33;;;;;;;7.65;1.38;;;24.30;92.60;;;;;;5076068;28;20196;-82
2022/11/29 06:55:16;;;;;;;5.38;1.58;;;24.00;93.60;;;;;;5071380;28;20311;-82
2022/11/29 06:58:03;;;;;;;6.43;1.60;;;23.70;95.50;;;;;;5071879;28;20202;-81
2022/11/29 07:00:45;;;;;;;7.60;2.03;;;23.30;97.50;;;;;;5066432;28;20195;-83
2022/11/29 07:03:36;;;;;;;7.25;1.48;;;23.30;99.20;;;;;;5061836;28;20622;-83
2022/11/29 07:06:17;;;;;;;8.95;1.77;;;23.20;99.90;;;;;;5050339;28;20267;-83
2022/11/29 07:08:48;;;;;;;7.13;1.85;;;23.20;99.90;;;;;;5053997;28;20238;-83
2022/11/29 07:11:21;;;;;;;8.63;2.00;;;23.20;99.90;;;;;;5050153;28;20192;-83
2022/11/29 07:13:53;;;;;;;4.85;1.30;;;23.10;99.90;;;;;;5049621;28;20193;-83
2022/11/29 07:16:30;;;;;;;6.72;1.70;;;23.00;99.90;;;;;;5068881;28;20282;-83
2022/11/29 07:19:08;;;;;;;6.95;1.63;;;22.90;99.90;;;;;;5061399;28;20299;-82
2022/11/29 07:21:52;;;;;;;7.30;1.90;;;22.80;99.90;;;;;;5065180;28;20196;-83
2022/11/29 07:24:40;;;;;;;8.60;2.00;;;22.70;99.90;;;;;;5067109;28;20212;-82
2022/11/29 07:27:20;;;;;;;6.10;1.67;;;22.60;99.90;;;;;;5070399;28;20231;-84
2022/11/29 07:30:04;;;;;;;10.40;2.22;;;22.50;99.90;;;;;;5063008;28;20685;-82
2022/11/29 07:32:48;;;;;;;8.13;1.75;;;22.40;99.90;;;;;;5079190;28;20206;-82
2022/11/29 07:35:23;;;;;;;10.32;2.00;;;22.30;99.90;;;;;;5068010;28;20292;-81
2022/11/29 07:38:04;;;;;;;10.07;2.22;;;22.20;99.90;;;;;;5051353;28;20658;-82
2022/11/29 07:40:41;;;;;;;9.73;2.00;;;22.20;99.90;;;;;;5054336;28;20279;-82
2022/11/29 07:43:26;;;;;;;8.43;2.30;;;22.10;99.90;;;;;;5055149;28;20709;-82
2022/11/29 07:45:58;;;;;;;6.97;1.95;;;22.10;99.90;;;;;;5051979;28;20280;-82
2022/11/29 07:48:29;;;;;;;5.25;1.85;;;22.00;99.90;;;;;;5053877;28;20699;-81
2022/11/29 07:51:00;;;;;;;7.80;2.17;;;21.90;99.90;;;;;;5071652;28;20203;-82
2022/11/29 07:53:32;;;;;;;9.40;2.20;;;21.90;99.90;;;;;;5070132;28;20192;-82
2022/11/29 07:56:03;;;;;;;6.90;2.08;;;21.80;99.90;;;;;;5076019;28;20277;-82
2022/11/29 07:58:36;;;;;;;8.73;1.95;;;21.80;99.90;;;;;;5076883;28;20204;-81
2022/11/29 08:01:07;;;;;;;7.70;1.65;;;21.90;99.90;;;;;;5075566;28;20345;-81
2022/11/29 08:03:42;;;;;;;8.90;1.90;;;21.80;99.90;;;;;;5076524;28;20196;-82
2022/11/29 08:06:13;;;;;;;7.40;1.70;;;21.80;99.90;;;;;;5076948;28;20260;-81
2022/11/29 08:08:44;;;;;;;7.15;1.80;;;21.90;99.90;;;;;;5076096;28;20232;-81
2022/11/29 08:11:16;;;;;;;10.68;2.00;;;21.90;99.90;;;;;;5057367;28;20207;-82
2022/11/29 08:13:51;;;;;;;4.30;1.60;;;21.90;99.90;;;;;;5056171;28;20196;-82
2022/11/29 08:16:22;;;;;;;9.18;1.95;;;21.70;99.90;;;;;;5064636;28;20206;-82
2022/11/29 08:18:54;;;;;;;8.63;2.00;;;21.70;99.90;;;;;;5075472;28;20196;-80
2022/11/29 08:21:25;;;;;;;8.18;2.05;;;21.70;99.90;;;;;;5075774;28;20203;-81
2022/11/29 08:23:56;;;;;;;13.65;2.78;;;21.60;99.90;;;;;;5075621;28;20216;-80
2022/11/29 08:26:28;;;;;;;6.55;1.88;;;21.60;99.90;;;;;;5074332;28;20634;-81
2022/11/29 08:29:01;;;;;;;7.93;1.75;;;21.50;99.90;;;;;;5071776;28;20220;-81
2022/11/29 08:31:35;;;;;;;10.35;1.75;;;21.50;99.90;;;;;;5070563;28;20196;-81
2022/11/29 08:34:08;;;;;;;7.32;2.08;;;21.50;99.90;;;;;;5073919;28;20191;-81
2022/11/29 08:36:39;;;;;;;7.85;2.40;;;21.50;99.90;;;;;;5076330;28;20279;-82
2022/11/29 08:39:10;;;;;;;11.65;2.20;;;21.50;99.90;;;;;;5075277;28;20288;-81
2022/11/29 08:41:41;;;;;;;10.82;2.35;;;21.40;99.90;;;;;;5074213;28;20287;-81
2022/11/29 08:44:13;;;;;;;8.00;1.88;;;21.30;99.90;;;;;;5071947;28;20231;-80
2022/11/29 08:49:31;;;;;;;7.75;2.22;;;21.30;99.90;;;;;;5078331;28;20286;-81
2022/11/29 08:54:57;;;;;;;12.45;2.20;;;21.20;99.90;;;;;;5036000;28;20250;-79
2022/11/29 08:57:28;;;;;;;9.07;2.40;;;21.20;99.90;;;;;;5056178;28;20234;-80
2022/11/29 09:00:01;;;;;;;11.35;2.30;;;21.30;99.90;;;;;;5073288;28;20196;-80
2022/11/29 09:02:32;;;;;;;6.95;2.13;;;21.20;99.90;;;;;;5059159;28;20206;-80
2022/11/29 09:05:03;;;;;;;8.07;2.00;;;21.20;99.90;;;;;;5074939;28;20192;-80
2022/11/29 09:07:34;;;;;;;10.30;2.10;;;21.20;99.90;;;;;;5067483;28;20575;-81
2022/11/29 09:10:06;;;;;;;9.10;2.22;;;21.20;99.90;;;;;;5067770;28;20207;-81
2022/11/29 09:12:38;;;;;;;10.35;2.15;;;21.30;99.90;;;;;;5068264;28;20192;-81
2022/11/29 09:15:13;;;;;;;8.98;2.28;;;21.20;99.90;;;;;;5064084;28;20283;-81
2022/11/29 09:17:44;;;;;;;10.60;2.03;;;21.30;99.90;;;;;;5066049;28;20303;-81
2022/11/29 09:20:16;;;;;;;12.55;2.22;;;21.30;99.90;;;;;;5069509;28;20663;-81
2022/11/29 09:22:47;;;;;;;9.65;2.40;;;21.30;99.90;;;;;;5068918;28;20214;-81
2022/11/29 09:25:18;;;;;;;8.15;2.67;;;21.30;99.90;;;;;;5061821;28;20208;-81
2022/11/29 09:27:48;;;;;;;10.52;2.90;;;21.20;99.90;;;;;;5067708;28;20671;-80
2022/11/29 09:30:22;;;;;;;9.98;2.30;;;21.20;99.90;;;;;;5071258;28;20282;-80
2022/11/29 09:32:53;;;;;;;12.50;2.30;;;21.10;99.90;;;;;;5063773;28;20698;-80
2022/11/29 09:35:24;;;;;;;9.73;2.50;;;21.10;99.90;;;;;;5059933;28;20210;-79
2022/11/29 09:37:55;;;;;;;13.27;2.40;;;21.00;99.90;;;;;;5061414;28;20240;-80
2022/11/29 09:40:33;;;;;;;9.48;2.10;;;21.00;99.90;;;;;;5073017;28;20566;-81
2022/11/29 09:43:09;;;;;;;8.95;2.17;;;21.00;99.90;;;;;;5070715;28;20192;-80
2022/11/29 09:45:47;;;;;;;7.80;2.28;;;21.00;99.90;;;;;;5071139;28;20687;-80
2022/11/29 09:48:56;;;;;;;10.20;2.38;;;21.00;99.90;;;;;;5071743;28;20691;-81
2022/11/29 09:51:31;;;;;;;8.90;2.22;;;21.00;99.90;;;;;;5080029;28;20279;-81
2022/11/29 09:54:21;;;;;;;10.25;2.72;;;21.00;99.90;;;;;;5062682;28;20543;-81
2022/11/29 09:56:56;;;;;;;9.82;1.92;;;21.00;99.90;;;;;;5059046;28;20261;-81
2022/11/29 09:59:31;;;;;;;9.80;2.50;;;21.00;99.90;;;;;;5066836;28;20191;-80
2022/11/29 10:02:13;;;;;;;8.05;2.40;;;21.00;99.90;;;;;;5065854;28;20211;-81
2022/11/29 10:04:51;;;;;;;12.95;2.30;;;20.80;99.90;;;;;;5079078;28;20255;-80
2022/11/29 10:07:26;;;;;;;10.20;2.10;;;20.90;99.90;;;;;;5076014;28;20198;-82
2022/11/29 10:10:03;;;;;;;9.63;2.00;;;20.90;99.90;;;;;;5072235;28;20658;-82
2022/11/29 10:12:39;;;;;;;9.93;2.20;;;20.70;99.90;;;;;;5073562;28;20688;-81
2022/11/29 10:15:16;;;;;;;8.82;1.80;;;20.70;99.90;;;;;;5064328;28;20199;-81
2022/11/29 10:17:57;;;;;;;9.55;1.90;;;20.70;99.90;;;;;;5065118;28;20193;-81
2022/11/29 10:20:30;;;;;;;6.85;2.13;;;20.70;99.90;;;;;;5074837;28;20278;-81
2022/11/29 10:23:11;;;;;;;7.78;1.92;;;20.70;99.90;;;;;;5076845;28;20200;-80
2022/11/29 10:25:48;;;;;;;9.82;2.13;;;20.70;99.90;;;;;;5076336;28;20829;-80
2022/11/29 10:28:21;;;;;;;7.75;2.00;;;20.70;99.90;;;;;;5072526;28;20303;-81
2022/11/29 10:30:54;;;;;;;9.57;2.05;;;20.80;99.90;;;;;;5063437;28;20308;-79
2022/11/29 10:33:31;;;;;;;8.07;1.90;;;20.70;99.90;;;;;;5079391;28;20199;-80
2022/11/29 10:36:08;;;;;;;10.38;2.35;;;20.80;99.90;;;;;;5075197;28;20195;-80
2022/11/29 10:38:40;;;;;;;11.50;2.33;;;20.80;99.90;;;;;;5072721;28;20192;-80
2022/11/29 10:41:14;;;;;;;10.18;1.95;;;20.70;99.90;;;;;;5057171;28;20207;-81
2022/11/29 10:43:45;;;;;;;6.97;1.83;;;20.70;99.90;;;;;;5067685;28;20575;-80
2022/11/29 10:46:22;;;;;;;6.40;1.70;;;20.70;99.90;;;;;;5076480;28;20180;-81
2022/11/29 10:48:56;;;;;;;11.88;2.60;;;20.80;99.90;;;;;;5071699;28;20230;-81
2022/11/29 10:51:27;;;;;;;10.63;2.17;;;20.70;99.90;;;;;;5059063;28;20204;-80
2022/11/29 10:54:04;;;;;;;6.70;1.77;;;20.80;99.90;;;;;;5060635;28;20257;-80
2022/11/29 10:56:36;;;;;;;11.40;1.95;;;20.80;99.90;;;;;;5068769;28;20223;-79
2022/11/29 10:59:10;;;;;;;7.60;2.00;;;20.90;99.90;;;;;;5068884;28;20199;-80
2022/11/29 11:01:43;;;;;;;8.88;2.08;;;20.80;99.90;;;;;;5061140;28;20191;-80
2022/11/29 11:04:29;;;;;;;7.50;1.90;;;20.80;99.90;;;;;;5070812;28;20192;-79
2022/11/29 11:07:02;;;;;;;8.98;2.00;;;20.80;99.90;;;;;;5072261;28;20697;-80
2022/11/29 11:09:36;;;;;;;8.77;1.85;;;20.80;99.90;;;;;;5064851;28;20364;-80
2022/11/29 11:12:18;;;;;;;6.93;1.60;;;20.80;99.90;;;;;;5072905;28;20206;-81
2022/11/29 11:14:50;;;;;;;8.73;1.90;;;20.80;99.90;;;;;;5054174;28;20251;-81
2022/11/29 11:17:26;;;;;;;8.27;1.92;;;20.70;99.90;;;;;;5065949;28;20199;-80
2022/11/29 11:20:07;;;;;;;8.45;2.08;;;20.80;99.90;;;;;;5064826;28;20192;-80
2022/11/29 11:22:39;;;;;;;7.95;2.00;;;20.70;99.90;;;;;;5073789;28;20196;-81
2022/11/29 11:25:28;;;;;;;8.48;2.10;;;20.80;99.90;;;;;;5072850;28;21532;-80
2022/11/29 11:28:12;;;;;;;10.07;2.05;;;20.80;99.90;;;;;;5071017;28;20231;-80
2022/11/29 11:30:50;;;;;;;6.75;1.90;;;20.70;99.90;;;;;;5076568;28;20226;-80
2022/11/29 11:33:23;;;;;;;19.02;2.00;;;20.70;99.90;;;;;;5073662;28;20206;-80
2022/11/29 11:36:12;;;;;;;7.68;1.80;;;20.60;99.90;;;;;;5062834;28;20200;-81
2022/11/29 11:38:52;;;;;;;8.48;2.10;;;20.70;99.90;;;;;;5076318;28;20200;-80
2022/11/29 11:42:35;;;;;;;6.35;1.42;;;20.70;99.90;;;;;;5070693;28;20655;-80
2022/11/29 11:44:30;;;;;;;7.07;1.60;;;20.70;99.90;;;;;;5066027;28;20205;-81
2022/11/29 11:47:02;;;;;;;7.95;1.80;;;20.70;99.90;;;;;;5072644;28;20202;-80
2022/11/29 11:49:35;;;;;;;6.57;1.70;;;20.70;99.90;;;;;;5077443;28;20263;-80
2022/11/29 11:52:09;;;;;;;7.40;1.83;;;20.70;99.90;;;;;;5067525;28;20232;-80
2022/11/29 11:54:40;;;;;;;7.57;1.90;;;20.70;99.90;;;;;;5060158;28;20188;-80
2022/11/29 11:57:20;;;;;;;6.30;1.80;;;20.70;99.90;;;;;;5070214;28;20198;-81
2022/11/29 11:59:52;;;;;;;6.80;1.83;;;20.80;99.90;;;;;;5060357;28;20214;-81
2022/11/29 12:02:33;;;;;;;8.45;1.65;;;20.80;99.90;;;;;;5069139;28;20180;-82
2022/11/29 12:05:07;;;;;;;8.35;2.00;;;20.70;99.90;;;;;;5073439;28;20293;-81
2022/11/29 12:07:46;;;;;;;8.98;1.70;;;20.70;99.90;;;;;;5063229;28;20196;-82
2022/11/29 12:10:24;;;;;;;5.70;1.38;;;20.70;99.90;;;;;;5063369;28;20232;-81
2022/11/29 12:12:56;;;;;;;10.02;1.63;;;20.70;99.90;;;;;;5075169;28;20196;-81
2022/11/29 12:15:31;;;;;;;4.88;1.40;;;20.60;99.90;;;;;;5063058;28;20242;-81
2022/11/29 12:18:07;;;;;;;4.53;1.60;;;20.60;99.90;;;;;;5073863;28;20195;-80
2022/11/29 12:20:42;;;;;;;8.45;1.88;;;20.60;99.90;;;;;;5073235;28;20202;-80
2022/11/29 12:23:28;;;;;;;8.35;2.00;;;20.60;99.90;;;;;;5073142;28;20346;-80
2022/11/29 12:26:09;;;;;;;10.70;2.05;;;20.60;99.90;;;;;;5062459;28;20666;-80
2022/11/29 12:28:43;;;;;;;7.40;1.60;;;20.60;99.90;;;;;;5068671;28;20265;-80
2022/11/29 12:31:29;;;;;;;7.28;1.48;;;20.60;99.90;;;;;;5060796;28;20689;-80
2022/11/29 12:34:08;;;;;;;5.50;1.50;;;20.60;99.90;;;;;;5064486;28;20188;-81
2022/11/29 12:36:48;;;;;;;7.07;1.77;;;20.60;99.90;;;;;;5069687;28;20198;-81
2022/11/29 12:39:42;;;;;;;9.40;1.70;;;20.60;99.90;;;;;;5071544;28;20206;-81
2022/11/29 12:42:21;;;;;;;5.75;1.38;;;20.60;99.90;;;;;;5068925;28;20222;-81
2022/11/29 12:45:02;;;;;;;7.78;1.85;;;20.70;99.90;;;;;;5068721;28;20192;-81
2022/11/29 12:47:43;;;;;;;5.93;1.60;;;20.60;99.90;;;;;;5071021;28;20195;-80
2022/11/29 12:50:32;;;;;;;8.35;2.05;;;20.60;99.90;;;;;;5064612;28;20274;-82
2022/11/29 12:53:18;;;;;;;5.05;1.48;;;20.50;99.90;;;;;;5068714;28;20643;-81
2022/11/29 12:55:58;;;;;;;7.13;1.63;;;20.50;99.90;;;;;;5081455;28;20216;-81
2022/11/29 12:58:35;;;;;;;7.97;1.60;;;20.50;99.90;;;;;;5075393;28;20725;-81
2022/11/29 13:01:12;;;;;;;6.75;1.50;;;20.50;99.90;;;;;;5071428;28;20196;-81
2022/11/29 13:03:54;;;;;;;8.25;1.95;;;20.40;99.90;;;;;;5067484;28;20315;-80
2022/11/29 13:06:31;;;;;;;3.75;1.35;;;20.50;99.90;;;;;;5069152;28;20200;-81
2022/11/29 13:09:15;;;;;;;11.65;1.92;;;20.50;99.90;;;;;;5070821;28;20219;-79
2022/11/29 13:11:56;;;;;;;9.77;2.10;;;20.60;99.90;;;;;;5057136;28;20254;-79
2022/11/29 13:14:33;;;;;;;11.20;2.33;;;20.50;99.90;;;;;;5071213;28;20195;-79
2022/11/29 13:17:05;;;;;;;7.25;1.85;;;20.50;99.90;;;;;;5061271;28;20279;-79
2022/11/29 13:19:44;;;;;;;9.88;2.22;;;20.40;99.90;;;;;;5071281;28;20196;-79
2022/11/29 13:22:22;;;;;;;11.07;2.38;;;20.20;99.90;;;;;;5082327;28;20199;-79
2022/11/29 13:24:57;;;;;;;11.88;2.13;;;20.30;99.90;;;;;;5071445;28;20219;-80
2022/11/29 13:27:34;;;;;;;9.27;2.10;;;20.30;99.90;;;;;;5067135;28;20192;-80
2022/11/29 13:30:06;;;;;;;9.63;2.03;;;20.30;99.90;;;;;;5061235;28;20216;-80
2022/11/29 13:32:41;;;;;;;11.02;2.55;;;20.40;99.90;;;;;;5071419;28;20200;-81
2022/11/29 13:35:21;;;;;;;10.57;2.30;;;20.40;99.90;;;;;;5058347;28;20195;-80
2022/11/29 13:37:55;;;;;;;10.98;2.20;;;20.30;99.90;;;;;;5075035;28;20218;-78
2022/11/29 13:40:37;;;;;;;11.45;2.13;;;20.20;99.90;;;;;;5071520;28;20200;-79
2022/11/29 13:43:20;;;;;;;11.63;2.72;;;20.20;99.90;;;;;;5070713;28;20551;-80
2022/11/29 13:45:57;;;;;;;8.90;2.10;;;20.30;99.90;;;;;;5065905;28;20262;-79
2022/11/29 13:48:48;;;;;;;9.25;2.35;;;20.30;99.90;;;;;;5051934;28;20286;-79
2022/11/29 13:51:36;;;;;;;14.55;2.72;;;20.20;99.90;;;;;;5070630;28;20219;-79
2022/11/29 13:54:12;;;;;;;10.25;2.28;;;20.20;99.90;;;;;;5070668;28;20222;-79